sensor_id;sensor_type;location;lat;lon;timestamp;P1;durP1;ratioP1;P2;durP2;ratioP2
46417;SDS011;69884;64.758;20.962;2023-05-20T00:00:27;3.43;;;2.40;;
46417;SDS011;69884;64.758;20.962;2023-05-20T00:02:53;6.00;;;2.40;;
46417;SDS011;69884;64.758;20.962;2023-05-20T00:05:18;4.15;;;2.20;;
46417;SDS011;69884;64.758;20.962;2023-05-20T00:07:43;3.00;;;2.20;;
46417;SDS011;69884;64.758;20.962;2023-05-20T00:10:09;2.97;;;2.10;;
46417;SDS011;69884;64.758;20.962;2023-05-20T00:12:35;4.03;;;2.40;;
46417;SDS011;69884;64.758;20.962;2023-05-20T00:15:00;3.90;;;2.43;;
46417;SDS011;69884;64.758;20.962;2023-05-20T00:17:25;3.90;;;2.37;;
46417;SDS011;69884;64.758;20.962;2023-05-20T00:19:52;4.53;;;2.45;;
46417;SDS011;69884;64.758;20.962;2023-05-20T00:22:17;3.15;;;2.40;;
46417;SDS011;69884;64.758;20.962;2023-05-20T00:24:43;4.57;;;2.43;;
46417;SDS011;69884;64.758;20.962;2023-05-20T00:27:08;3.47;;;2.10;;
46417;SDS011;69884;64.758;20.962;2023-05-20T00:29:33;3.27;;;2.33;;
46417;SDS011;69884;64.758;20.962;2023-05-20T00:31:59;3.30;;;2.30;;
46417;SDS011;69884;64.758;20.962;2023-05-20T00:34:24;4.43;;;2.30;;
46417;SDS011;69884;64.758;20.962;2023-05-20T00:36:50;5.93;;;2.57;;
46417;SDS011;69884;64.758;20.962;2023-05-20T00:39:15;7.63;;;2.63;;
46417;SDS011;69884;64.758;20.962;2023-05-20T00:41:41;6.17;;;2.67;;
46417;SDS011;69884;64.758;20.962;2023-05-20T00:44:06;4.35;;;2.58;;
46417;SDS011;69884;64.758;20.962;2023-05-20T00:46:31;3.27;;;2.33;;
46417;SDS011;69884;64.758;20.962;2023-05-20T00:48:57;5.13;;;2.57;;
46417;SDS011;69884;64.758;20.962;2023-05-20T00:51:22;3.88;;;2.30;;
46417;SDS011;69884;64.758;20.962;2023-05-20T00:53:48;5.27;;;2.70;;
46417;SDS011;69884;64.758;20.962;2023-05-20T00:56:13;4.22;;;2.40;;
46417;SDS011;69884;64.758;20.962;2023-05-20T00:58:39;5.17;;;2.63;;
46417;SDS011;69884;64.758;20.962;2023-05-20T01:01:04;4.13;;;2.40;;
46417;SDS011;69884;64.758;20.962;2023-05-20T01:03:30;5.18;;;2.70;;
46417;SDS011;69884;64.758;20.962;2023-05-20T01:05:55;5.23;;;2.47;;
46417;SDS011;69884;64.758;20.962;2023-05-20T01:08:21;3.87;;;2.30;;
46417;SDS011;69884;64.758;20.962;2023-05-20T01:10:48;5.50;;;2.60;;
46417;SDS011;69884;64.758;20.962;2023-05-20T01:13:16;5.32;;;2.70;;
46417;SDS011;69884;64.758;20.962;2023-05-20T01:15:43;5.15;;;2.60;;
46417;SDS011;69884;64.758;20.962;2023-05-20T01:18:10;6.70;;;2.70;;
46417;SDS011;69884;64.758;20.962;2023-05-20T01:20:40;6.38;;;2.47;;
46417;SDS011;69884;64.758;20.962;2023-05-20T01:23:05;4.80;;;2.40;;
46417;SDS011;69884;64.758;20.962;2023-05-20T01:25:30;4.63;;;2.47;;
46417;SDS011;69884;64.758;20.962;2023-05-20T01:27:56;6.38;;;2.65;;
46417;SDS011;69884;64.758;20.962;2023-05-20T01:30:21;7.90;;;2.83;;
46417;SDS011;69884;64.758;20.962;2023-05-20T01:32:49;5.40;;;2.90;;
46417;SDS011;69884;64.758;20.962;2023-05-20T01:35:16;7.95;;;2.92;;
46417;SDS011;69884;64.758;20.962;2023-05-20T01:37:42;7.07;;;2.85;;
46417;SDS011;69884;64.758;20.962;2023-05-20T01:40:08;5.30;;;2.57;;
46417;SDS011;69884;64.758;20.962;2023-05-20T01:42:34;5.25;;;2.63;;
46417;SDS011;69884;64.758;20.962;2023-05-20T01:44:59;4.85;;;2.47;;
46417;SDS011;69884;64.758;20.962;2023-05-20T01:47:25;4.93;;;2.60;;
46417;SDS011;69884;64.758;20.962;2023-05-20T01:49:50;6.60;;;2.60;;
46417;SDS011;69884;64.758;20.962;2023-05-20T01:52:18;4.45;;;2.70;;
46417;SDS011;69884;64.758;20.962;2023-05-20T01:54:43;3.83;;;2.70;;
46417;SDS011;69884;64.758;20.962;2023-05-20T01:57:14;4.68;;;2.40;;
46417;SDS011;69884;64.758;20.962;2023-05-20T01:59:40;4.53;;;2.70;;
46417;SDS011;69884;64.758;20.962;2023-05-20T02:02:05;5.13;;;2.83;;
46417;SDS011;69884;64.758;20.962;2023-05-20T02:04:30;4.50;;;3.00;;
46417;SDS011;69884;64.758;20.962;2023-05-20T02:06:56;4.67;;;2.47;;
46417;SDS011;69884;64.758;20.962;2023-05-20T02:09:21;5.07;;;2.60;;
46417;SDS011;69884;64.758;20.962;2023-05-20T02:11:46;3.97;;;2.70;;
46417;SDS011;69884;64.758;20.962;2023-05-20T02:14:11;4.27;;;2.63;;
46417;SDS011;69884;64.758;20.962;2023-05-20T02:16:37;5.20;;;2.40;;
46417;SDS011;69884;64.758;20.962;2023-05-20T02:19:02;4.90;;;2.73;;
46417;SDS011;69884;64.758;20.962;2023-05-20T02:21:27;4.80;;;2.80;;
46417;SDS011;69884;64.758;20.962;2023-05-20T02:23:53;4.53;;;2.70;;
46417;SDS011;69884;64.758;20.962;2023-05-20T02:26:18;4.43;;;2.40;;
46417;SDS011;69884;64.758;20.962;2023-05-20T02:28:46;4.43;;;2.20;;
46417;SDS011;69884;64.758;20.962;2023-05-20T02:31:14;4.40;;;2.63;;
46417;SDS011;69884;64.758;20.962;2023-05-20T02:33:40;5.40;;;2.70;;
46417;SDS011;69884;64.758;20.962;2023-05-20T02:36:05;3.87;;;2.53;;
46417;SDS011;69884;64.758;20.962;2023-05-20T02:38:31;5.78;;;3.00;;
46417;SDS011;69884;64.758;20.962;2023-05-20T02:40:56;5.27;;;2.90;;
46417;SDS011;69884;64.758;20.962;2023-05-20T02:43:23;4.18;;;2.90;;
46417;SDS011;69884;64.758;20.962;2023-05-20T02:45:48;5.83;;;2.97;;
46417;SDS011;69884;64.758;20.962;2023-05-20T02:48:13;4.63;;;2.50;;
46417;SDS011;69884;64.758;20.962;2023-05-20T02:50:38;4.90;;;2.70;;
46417;SDS011;69884;64.758;20.962;2023-05-20T02:53:04;2.87;;;2.53;;
46417;SDS011;69884;64.758;20.962;2023-05-20T02:55:32;5.80;;;2.80;;
46417;SDS011;69884;64.758;20.962;2023-05-20T02:57:57;3.90;;;2.70;;
46417;SDS011;69884;64.758;20.962;2023-05-20T03:00:23;4.18;;;2.38;;
46417;SDS011;69884;64.758;20.962;2023-05-20T03:02:48;5.33;;;2.77;;
46417;SDS011;69884;64.758;20.962;2023-05-20T03:05:13;4.73;;;2.77;;
46417;SDS011;69884;64.758;20.962;2023-05-20T03:07:39;4.43;;;2.63;;
46417;SDS011;69884;64.758;20.962;2023-05-20T03:10:04;5.97;;;2.70;;
46417;SDS011;69884;64.758;20.962;2023-05-20T03:12:30;4.97;;;2.90;;
46417;SDS011;69884;64.758;20.962;2023-05-20T03:14:56;4.28;;;2.50;;
46417;SDS011;69884;64.758;20.962;2023-05-20T03:17:22;3.72;;;2.70;;
46417;SDS011;69884;64.758;20.962;2023-05-20T03:19:48;5.40;;;2.93;;
46417;SDS011;69884;64.758;20.962;2023-05-20T03:22:13;7.83;;;2.80;;
46417;SDS011;69884;64.758;20.962;2023-05-20T03:24:38;5.63;;;2.80;;
46417;SDS011;69884;64.758;20.962;2023-05-20T03:27:04;6.73;;;3.20;;
46417;SDS011;69884;64.758;20.962;2023-05-20T03:29:30;5.53;;;3.13;;
46417;SDS011;69884;64.758;20.962;2023-05-20T03:31:57;6.80;;;3.10;;
46417;SDS011;69884;64.758;20.962;2023-05-20T03:34:22;7.20;;;3.20;;
46417;SDS011;69884;64.758;20.962;2023-05-20T03:36:49;3.40;;;3.00;;
46417;SDS011;69884;64.758;20.962;2023-05-20T03:39:15;4.78;;;2.78;;
46417;SDS011;69884;64.758;20.962;2023-05-20T03:41:40;7.03;;;3.10;;
46417;SDS011;69884;64.758;20.962;2023-05-20T03:44:05;3.77;;;2.63;;
46417;SDS011;69884;64.758;20.962;2023-05-20T03:46:31;5.77;;;2.90;;
46417;SDS011;69884;64.758;20.962;2023-05-20T03:48:58;4.35;;;2.83;;
46417;SDS011;69884;64.758;20.962;2023-05-20T03:51:23;4.22;;;2.65;;
46417;SDS011;69884;64.758;20.962;2023-05-20T03:53:48;9.10;;;2.90;;
46417;SDS011;69884;64.758;20.962;2023-05-20T03:56:13;5.43;;;2.50;;
46417;SDS011;69884;64.758;20.962;2023-05-20T03:58:39;7.57;;;3.30;;
46417;SDS011;69884;64.758;20.962;2023-05-20T04:01:04;4.43;;;2.88;;
46417;SDS011;69884;64.758;20.962;2023-05-20T04:03:30;4.20;;;2.77;;
46417;SDS011;69884;64.758;20.962;2023-05-20T04:05:55;3.55;;;2.45;;
46417;SDS011;69884;64.758;20.962;2023-05-20T04:08:21;5.63;;;2.60;;
46417;SDS011;69884;64.758;20.962;2023-05-20T04:10:46;5.30;;;2.63;;
46417;SDS011;69884;64.758;20.962;2023-05-20T04:13:11;3.83;;;2.53;;
46417;SDS011;69884;64.758;20.962;2023-05-20T04:15:37;4.53;;;2.33;;
46417;SDS011;69884;64.758;20.962;2023-05-20T04:18:02;7.72;;;2.72;;
46417;SDS011;69884;64.758;20.962;2023-05-20T04:20:28;5.53;;;2.93;;
46417;SDS011;69884;64.758;20.962;2023-05-20T04:22:53;3.47;;;2.57;;
46417;SDS011;69884;64.758;20.962;2023-05-20T04:25:19;3.28;;;2.65;;
46417;SDS011;69884;64.758;20.962;2023-05-20T04:27:44;5.43;;;2.60;;
46417;SDS011;69884;64.758;20.962;2023-05-20T04:30:10;4.30;;;2.30;;
46417;SDS011;69884;64.758;20.962;2023-05-20T04:32:35;5.67;;;2.40;;
46417;SDS011;69884;64.758;20.962;2023-05-20T04:35:01;5.33;;;2.63;;
46417;SDS011;69884;64.758;20.962;2023-05-20T04:37:27;6.00;;;2.67;;
46417;SDS011;69884;64.758;20.962;2023-05-20T04:39:52;4.05;;;2.83;;
46417;SDS011;69884;64.758;20.962;2023-05-20T04:42:18;4.17;;;2.37;;
46417;SDS011;69884;64.758;20.962;2023-05-20T04:44:44;5.15;;;2.45;;
46417;SDS011;69884;64.758;20.962;2023-05-20T04:47:13;4.10;;;2.43;;
46417;SDS011;69884;64.758;20.962;2023-05-20T04:49:38;3.45;;;2.15;;
46417;SDS011;69884;64.758;20.962;2023-05-20T04:52:04;4.00;;;2.03;;
46417;SDS011;69884;64.758;20.962;2023-05-20T04:54:29;3.43;;;2.20;;
46417;SDS011;69884;64.758;20.962;2023-05-20T04:56:56;3.58;;;2.08;;
46417;SDS011;69884;64.758;20.962;2023-05-20T04:59:21;3.80;;;2.10;;
46417;SDS011;69884;64.758;20.962;2023-05-20T05:01:47;3.67;;;1.97;;
46417;SDS011;69884;64.758;20.962;2023-05-20T05:04:12;4.50;;;2.37;;
46417;SDS011;69884;64.758;20.962;2023-05-20T05:06:37;4.00;;;1.93;;
46417;SDS011;69884;64.758;20.962;2023-05-20T05:09:03;4.57;;;2.07;;
46417;SDS011;69884;64.758;20.962;2023-05-20T05:11:28;3.45;;;1.90;;
46417;SDS011;69884;64.758;20.962;2023-05-20T05:13:54;3.10;;;1.80;;
46417;SDS011;69884;64.758;20.962;2023-05-20T05:16:19;3.55;;;1.98;;
46417;SDS011;69884;64.758;20.962;2023-05-20T05:18:44;5.13;;;2.40;;
46417;SDS011;69884;64.758;20.962;2023-05-20T05:21:10;3.97;;;1.70;;
46417;SDS011;69884;64.758;20.962;2023-05-20T05:23:35;3.63;;;1.80;;
46417;SDS011;69884;64.758;20.962;2023-05-20T05:26:00;5.77;;;1.90;;
46417;SDS011;69884;64.758;20.962;2023-05-20T05:28:26;3.83;;;1.80;;
46417;SDS011;69884;64.758;20.962;2023-05-20T05:30:53;2.47;;;1.80;;
46417;SDS011;69884;64.758;20.962;2023-05-20T05:33:18;3.47;;;1.70;;
46417;SDS011;69884;64.758;20.962;2023-05-20T05:35:43;4.77;;;1.80;;
46417;SDS011;69884;64.758;20.962;2023-05-20T05:38:08;2.30;;;1.70;;
46417;SDS011;69884;64.758;20.962;2023-05-20T05:40:34;5.63;;;1.90;;
46417;SDS011;69884;64.758;20.962;2023-05-20T05:43:00;3.15;;;1.77;;
46417;SDS011;69884;64.758;20.962;2023-05-20T05:45:25;3.27;;;1.53;;
46417;SDS011;69884;64.758;20.962;2023-05-20T05:47:50;2.80;;;1.60;;
46417;SDS011;69884;64.758;20.962;2023-05-20T05:50:16;4.90;;;1.70;;
46417;SDS011;69884;64.758;20.962;2023-05-20T05:52:41;3.00;;;1.80;;
46417;SDS011;69884;64.758;20.962;2023-05-20T05:55:07;5.23;;;2.07;;
46417;SDS011;69884;64.758;20.962;2023-05-20T05:57:32;5.28;;;2.00;;
46417;SDS011;69884;64.758;20.962;2023-05-20T05:59:57;3.60;;;1.80;;
46417;SDS011;69884;64.758;20.962;2023-05-20T06:02:23;4.65;;;1.83;;
46417;SDS011;69884;64.758;20.962;2023-05-20T06:04:48;3.03;;;1.67;;
46417;SDS011;69884;64.758;20.962;2023-05-20T06:07:14;3.23;;;1.80;;
46417;SDS011;69884;64.758;20.962;2023-05-20T06:09:39;3.95;;;1.70;;
46417;SDS011;69884;64.758;20.962;2023-05-20T06:12:05;6.87;;;2.10;;
46417;SDS011;69884;64.758;20.962;2023-05-20T06:14:30;3.60;;;1.67;;
46417;SDS011;69884;64.758;20.962;2023-05-20T06:16:56;3.92;;;1.77;;
46417;SDS011;69884;64.758;20.962;2023-05-20T06:19:22;3.67;;;1.50;;
46417;SDS011;69884;64.758;20.962;2023-05-20T06:21:47;3.50;;;1.77;;
46417;SDS011;69884;64.758;20.962;2023-05-20T06:24:12;6.43;;;1.93;;
46417;SDS011;69884;64.758;20.962;2023-05-20T06:26:37;4.43;;;1.50;;
46417;SDS011;69884;64.758;20.962;2023-05-20T06:29:03;4.17;;;1.60;;
46417;SDS011;69884;64.758;20.962;2023-05-20T06:31:28;3.93;;;1.80;;
46417;SDS011;69884;64.758;20.962;2023-05-20T06:33:54;4.33;;;1.70;;
46417;SDS011;69884;64.758;20.962;2023-05-20T06:36:19;3.60;;;1.57;;
46417;SDS011;69884;64.758;20.962;2023-05-20T06:38:45;4.63;;;1.63;;
46417;SDS011;69884;64.758;20.962;2023-05-20T06:41:10;5.03;;;1.70;;
46417;SDS011;69884;64.758;20.962;2023-05-20T06:43:35;3.67;;;1.50;;
46417;SDS011;69884;64.758;20.962;2023-05-20T06:46:01;4.70;;;1.50;;
46417;SDS011;69884;64.758;20.962;2023-05-20T06:48:26;4.53;;;1.87;;
46417;SDS011;69884;64.758;20.962;2023-05-20T06:50:51;4.07;;;1.58;;
46417;SDS011;69884;64.758;20.962;2023-05-20T06:53:17;4.93;;;1.80;;
46417;SDS011;69884;64.758;20.962;2023-05-20T06:55:42;5.30;;;1.87;;
46417;SDS011;69884;64.758;20.962;2023-05-20T06:58:07;2.70;;;1.60;;
46417;SDS011;69884;64.758;20.962;2023-05-20T07:00:33;4.33;;;1.90;;
46417;SDS011;69884;64.758;20.962;2023-05-20T07:02:58;2.87;;;1.60;;
46417;SDS011;69884;64.758;20.962;2023-05-20T07:05:23;3.13;;;1.90;;
46417;SDS011;69884;64.758;20.962;2023-05-20T07:07:49;2.63;;;1.90;;
46417;SDS011;69884;64.758;20.962;2023-05-20T07:10:14;2.50;;;1.63;;
46417;SDS011;69884;64.758;20.962;2023-05-20T07:12:39;4.05;;;1.98;;
46417;SDS011;69884;64.758;20.962;2023-05-20T07:15:05;2.17;;;1.60;;
46417;SDS011;69884;64.758;20.962;2023-05-20T07:17:30;2.78;;;1.70;;
46417;SDS011;69884;64.758;20.962;2023-05-20T07:19:56;3.47;;;1.80;;
46417;SDS011;69884;64.758;20.962;2023-05-20T07:22:21;2.67;;;1.70;;
46417;SDS011;69884;64.758;20.962;2023-05-20T07:24:46;3.67;;;1.90;;
46417;SDS011;69884;64.758;20.962;2023-05-20T07:27:12;2.03;;;1.50;;
46417;SDS011;69884;64.758;20.962;2023-05-20T07:29:37;3.40;;;1.70;;
46417;SDS011;69884;64.758;20.962;2023-05-20T07:32:03;3.60;;;1.90;;
46417;SDS011;69884;64.758;20.962;2023-05-20T07:34:29;2.35;;;1.70;;
46417;SDS011;69884;64.758;20.962;2023-05-20T07:36:54;3.08;;;1.70;;
46417;SDS011;69884;64.758;20.962;2023-05-20T07:39:20;3.60;;;1.70;;
46417;SDS011;69884;64.758;20.962;2023-05-20T07:41:46;2.13;;;1.50;;
46417;SDS011;69884;64.758;20.962;2023-05-20T07:44:11;3.80;;;1.57;;
46417;SDS011;69884;64.758;20.962;2023-05-20T07:46:37;15.00;;;2.30;;
46417;SDS011;69884;64.758;20.962;2023-05-20T07:49:03;23.83;;;2.57;;
46417;SDS011;69884;64.758;20.962;2023-05-20T07:51:28;2.90;;;1.83;;
46417;SDS011;69884;64.758;20.962;2023-05-20T07:53:53;4.13;;;1.83;;
46417;SDS011;69884;64.758;20.962;2023-05-20T07:56:19;2.20;;;1.80;;
46417;SDS011;69884;64.758;20.962;2023-05-20T07:58:50;6.10;;;1.90;;
46417;SDS011;69884;64.758;20.962;2023-05-20T08:01:16;4.07;;;1.90;;
46417;SDS011;69884;64.758;20.962;2023-05-20T08:03:41;2.20;;;1.63;;
46417;SDS011;69884;64.758;20.962;2023-05-20T08:06:06;3.13;;;1.83;;
46417;SDS011;69884;64.758;20.962;2023-05-20T08:08:32;2.88;;;1.80;;
46417;SDS011;69884;64.758;20.962;2023-05-20T08:10:57;3.30;;;1.60;;
46417;SDS011;69884;64.758;20.962;2023-05-20T08:13:23;2.93;;;1.70;;
46417;SDS011;69884;64.758;20.962;2023-05-20T08:15:48;4.30;;;1.80;;
46417;SDS011;69884;64.758;20.962;2023-05-20T08:18:14;5.70;;;1.93;;
46417;SDS011;69884;64.758;20.962;2023-05-20T08:20:39;3.77;;;1.80;;
46417;SDS011;69884;64.758;20.962;2023-05-20T08:23:06;1.80;;;1.50;;
46417;SDS011;69884;64.758;20.962;2023-05-20T08:25:31;2.40;;;1.77;;
46417;SDS011;69884;64.758;20.962;2023-05-20T08:27:56;3.37;;;1.93;;
46417;SDS011;69884;64.758;20.962;2023-05-20T08:30:22;3.83;;;1.77;;
46417;SDS011;69884;64.758;20.962;2023-05-20T08:32:47;3.17;;;1.70;;
46417;SDS011;69884;64.758;20.962;2023-05-20T08:35:12;5.25;;;1.92;;
46417;SDS011;69884;64.758;20.962;2023-05-20T08:37:38;2.00;;;1.80;;
46417;SDS011;69884;64.758;20.962;2023-05-20T08:40:03;3.53;;;1.57;;
46417;SDS011;69884;64.758;20.962;2023-05-20T08:42:29;2.38;;;1.60;;
46417;SDS011;69884;64.758;20.962;2023-05-20T08:44:54;2.43;;;1.67;;
46417;SDS011;69884;64.758;20.962;2023-05-20T08:47:20;1.90;;;1.70;;
46417;SDS011;69884;64.758;20.962;2023-05-20T08:49:46;2.43;;;1.70;;
46417;SDS011;69884;64.758;20.962;2023-05-20T08:52:12;2.93;;;1.80;;
46417;SDS011;69884;64.758;20.962;2023-05-20T08:54:42;2.13;;;1.90;;
46417;SDS011;69884;64.758;20.962;2023-05-20T08:57:08;2.30;;;1.50;;
46417;SDS011;69884;64.758;20.962;2023-05-20T08:59:47;3.03;;;1.60;;
46417;SDS011;69884;64.758;20.962;2023-05-20T09:02:12;2.20;;;1.55;;
46417;SDS011;69884;64.758;20.962;2023-05-20T09:04:37;4.00;;;1.83;;
46417;SDS011;69884;64.758;20.962;2023-05-20T09:07:03;1.67;;;1.53;;
46417;SDS011;69884;64.758;20.962;2023-05-20T09:09:29;2.57;;;1.50;;
46417;SDS011;69884;64.758;20.962;2023-05-20T09:11:54;2.80;;;1.40;;
46417;SDS011;69884;64.758;20.962;2023-05-20T09:14:19;3.20;;;1.63;;
46417;SDS011;69884;64.758;20.962;2023-05-20T09:16:45;2.10;;;1.60;;
46417;SDS011;69884;64.758;20.962;2023-05-20T09:19:11;1.95;;;1.25;;
46417;SDS011;69884;64.758;20.962;2023-05-20T09:21:37;2.37;;;1.40;;
46417;SDS011;69884;64.758;20.962;2023-05-20T09:24:03;2.10;;;1.42;;
46417;SDS011;69884;64.758;20.962;2023-05-20T09:26:28;1.60;;;1.48;;
46417;SDS011;69884;64.758;20.962;2023-05-20T09:28:57;2.97;;;1.67;;
46417;SDS011;69884;64.758;20.962;2023-05-20T09:31:26;5.78;;;1.95;;
46417;SDS011;69884;64.758;20.962;2023-05-20T09:33:52;2.80;;;1.70;;
46417;SDS011;69884;64.758;20.962;2023-05-20T09:36:18;3.67;;;1.75;;
46417;SDS011;69884;64.758;20.962;2023-05-20T09:38:45;3.13;;;1.48;;
46417;SDS011;69884;64.758;20.962;2023-05-20T09:41:11;1.98;;;1.77;;
46417;SDS011;69884;64.758;20.962;2023-05-20T09:43:40;2.58;;;1.52;;
46417;SDS011;69884;64.758;20.962;2023-05-20T09:46:06;3.03;;;1.90;;
46417;SDS011;69884;64.758;20.962;2023-05-20T09:48:34;2.73;;;1.40;;
46417;SDS011;69884;64.758;20.962;2023-05-20T09:51:00;5.88;;;1.98;;
46417;SDS011;69884;64.758;20.962;2023-05-20T09:53:26;2.30;;;1.55;;
46417;SDS011;69884;64.758;20.962;2023-05-20T09:55:52;4.35;;;1.92;;
46417;SDS011;69884;64.758;20.962;2023-05-20T09:58:18;1.77;;;1.50;;
46417;SDS011;69884;64.758;20.962;2023-05-20T10:00:44;1.60;;;1.40;;
46417;SDS011;69884;64.758;20.962;2023-05-20T10:03:10;3.15;;;1.42;;
46417;SDS011;69884;64.758;20.962;2023-05-20T10:05:36;2.63;;;1.60;;
46417;SDS011;69884;64.758;20.962;2023-05-20T10:08:27;2.10;;;1.20;;
46417;SDS011;69884;64.758;20.962;2023-05-20T10:11:06;2.00;;;1.20;;
46417;SDS011;69884;64.758;20.962;2023-05-20T10:21:25;1.83;;;1.13;;
46417;SDS011;69884;64.758;20.962;2023-05-20T10:23:51;1.67;;;0.97;;
46417;SDS011;69884;64.758;20.962;2023-05-20T10:26:17;1.48;;;1.05;;
46417;SDS011;69884;64.758;20.962;2023-05-20T10:28:42;1.45;;;1.10;;
46417;SDS011;69884;64.758;20.962;2023-05-20T10:31:14;1.92;;;1.13;;
46417;SDS011;69884;64.758;20.962;2023-05-20T10:33:42;2.10;;;1.10;;
46417;SDS011;69884;64.758;20.962;2023-05-20T10:36:07;1.08;;;1.00;;
46417;SDS011;69884;64.758;20.962;2023-05-20T10:38:32;1.93;;;1.20;;
46417;SDS011;69884;64.758;20.962;2023-05-20T10:41:06;1.10;;;1.00;;
46417;SDS011;69884;64.758;20.962;2023-05-20T10:43:31;1.80;;;1.00;;
46417;SDS011;69884;64.758;20.962;2023-05-20T10:45:57;2.47;;;1.00;;
46417;SDS011;69884;64.758;20.962;2023-05-20T10:50:55;1.00;;;0.90;;
46417;SDS011;69884;64.758;20.962;2023-05-20T10:53:21;5.65;;;1.50;;
46417;SDS011;69884;64.758;20.962;2023-05-20T10:55:48;3.15;;;1.40;;
46417;SDS011;69884;64.758;20.962;2023-05-20T10:58:15;1.92;;;0.93;;
46417;SDS011;69884;64.758;20.962;2023-05-20T11:00:41;2.90;;;1.03;;
46417;SDS011;69884;64.758;20.962;2023-05-20T11:03:07;3.90;;;1.10;;
46417;SDS011;69884;64.758;20.962;2023-05-20T11:05:32;2.07;;;1.20;;
46417;SDS011;69884;64.758;20.962;2023-05-20T11:08:03;2.10;;;1.00;;
46417;SDS011;69884;64.758;20.962;2023-05-20T11:10:29;1.88;;;0.98;;
46417;SDS011;69884;64.758;20.962;2023-05-20T11:12:55;3.30;;;1.00;;
46417;SDS011;69884;64.758;20.962;2023-05-20T11:15:21;1.40;;;1.00;;
46417;SDS011;69884;64.758;20.962;2023-05-20T11:17:52;1.60;;;0.82;;
46417;SDS011;69884;64.758;20.962;2023-05-20T11:20:18;2.70;;;1.10;;
46417;SDS011;69884;64.758;20.962;2023-05-20T11:22:43;4.20;;;1.00;;
46417;SDS011;69884;64.758;20.962;2023-05-20T11:25:09;2.07;;;1.00;;
46417;SDS011;69884;64.758;20.962;2023-05-20T11:27:37;2.75;;;1.10;;
46417;SDS011;69884;64.758;20.962;2023-05-20T11:30:03;1.52;;;0.80;;
46417;SDS011;69884;64.758;20.962;2023-05-20T11:32:29;24.87;;;3.30;;
46417;SDS011;69884;64.758;20.962;2023-05-20T11:34:55;26.17;;;4.47;;
46417;SDS011;69884;64.758;20.962;2023-05-20T11:37:20;8.67;;;1.57;;
46417;SDS011;69884;64.758;20.962;2023-05-20T11:39:47;1.50;;;0.98;;
46417;SDS011;69884;64.758;20.962;2023-05-20T11:42:15;1.77;;;1.20;;
46417;SDS011;69884;64.758;20.962;2023-05-20T11:44:43;1.13;;;0.90;;
46417;SDS011;69884;64.758;20.962;2023-05-20T11:47:09;3.50;;;1.10;;
46417;SDS011;69884;64.758;20.962;2023-05-20T11:49:38;1.57;;;1.10;;
46417;SDS011;69884;64.758;20.962;2023-05-20T11:52:03;1.85;;;1.10;;
46417;SDS011;69884;64.758;20.962;2023-05-20T11:54:29;1.20;;;1.00;;
46417;SDS011;69884;64.758;20.962;2023-05-20T11:56:54;4.00;;;1.10;;
46417;SDS011;69884;64.758;20.962;2023-05-20T11:59:20;3.77;;;1.10;;
46417;SDS011;69884;64.758;20.962;2023-05-20T12:01:47;3.70;;;1.00;;
46417;SDS011;69884;64.758;20.962;2023-05-20T12:04:12;1.30;;;1.00;;
46417;SDS011;69884;64.758;20.962;2023-05-20T12:06:38;2.23;;;1.00;;
46417;SDS011;69884;64.758;20.962;2023-05-20T12:09:04;1.43;;;1.00;;
46417;SDS011;69884;64.758;20.962;2023-05-20T12:11:34;2.05;;;1.10;;
46417;SDS011;69884;64.758;20.962;2023-05-20T12:14:00;1.57;;;1.20;;
46417;SDS011;69884;64.758;20.962;2023-05-20T12:16:26;1.38;;;1.13;;
46417;SDS011;69884;64.758;20.962;2023-05-20T12:18:52;4.90;;;1.25;;
46417;SDS011;69884;64.758;20.962;2023-05-20T12:21:17;1.40;;;1.00;;
46417;SDS011;69884;64.758;20.962;2023-05-20T12:23:42;2.13;;;1.10;;
46417;SDS011;69884;64.758;20.962;2023-05-20T12:26:07;1.40;;;1.10;;
46417;SDS011;69884;64.758;20.962;2023-05-20T12:28:34;1.60;;;1.25;;
46417;SDS011;69884;64.758;20.962;2023-05-20T12:31:00;2.30;;;1.10;;
46417;SDS011;69884;64.758;20.962;2023-05-20T12:33:25;2.37;;;1.07;;
46417;SDS011;69884;64.758;20.962;2023-05-20T12:35:51;1.43;;;1.10;;
46417;SDS011;69884;64.758;20.962;2023-05-20T12:38:17;3.10;;;1.10;;
46417;SDS011;69884;64.758;20.962;2023-05-20T12:40:42;1.53;;;1.00;;
46417;SDS011;69884;64.758;20.962;2023-05-20T12:43:08;2.33;;;1.30;;
46417;SDS011;69884;64.758;20.962;2023-05-20T12:45:33;2.30;;;1.13;;
46417;SDS011;69884;64.758;20.962;2023-05-20T12:47:59;8.93;;;1.50;;
46417;SDS011;69884;64.758;20.962;2023-05-20T12:50:24;2.77;;;0.90;;
46417;SDS011;69884;64.758;20.962;2023-05-20T12:52:50;1.23;;;0.90;;
46417;SDS011;69884;64.758;20.962;2023-05-20T12:55:15;2.53;;;1.17;;
46417;SDS011;69884;64.758;20.962;2023-05-20T12:57:43;3.30;;;1.07;;
46417;SDS011;69884;64.758;20.962;2023-05-20T13:00:09;2.20;;;1.10;;
46417;SDS011;69884;64.758;20.962;2023-05-20T13:02:35;3.03;;;1.48;;
46417;SDS011;69884;64.758;20.962;2023-05-20T13:05:00;2.63;;;1.30;;
46417;SDS011;69884;64.758;20.962;2023-05-20T13:07:26;1.30;;;1.10;;
46417;SDS011;69884;64.758;20.962;2023-05-20T13:09:51;2.87;;;1.27;;
46417;SDS011;69884;64.758;20.962;2023-05-20T13:12:16;4.13;;;1.30;;
46417;SDS011;69884;64.758;20.962;2023-05-20T13:14:42;1.07;;;0.90;;
46417;SDS011;69884;64.758;20.962;2023-05-20T13:17:07;1.20;;;0.90;;
46417;SDS011;69884;64.758;20.962;2023-05-20T13:19:32;2.27;;;1.00;;
46417;SDS011;69884;64.758;20.962;2023-05-20T13:21:58;1.10;;;1.00;;
46417;SDS011;69884;64.758;20.962;2023-05-20T13:24:23;2.00;;;1.10;;
46417;SDS011;69884;64.758;20.962;2023-05-20T13:26:49;2.83;;;1.00;;
46417;SDS011;69884;64.758;20.962;2023-05-20T13:29:14;3.45;;;1.20;;
46417;SDS011;69884;64.758;20.962;2023-05-20T13:31:40;3.53;;;1.40;;
46417;SDS011;69884;64.758;20.962;2023-05-20T13:34:05;2.60;;;1.00;;
46417;SDS011;69884;64.758;20.962;2023-05-20T13:36:31;1.93;;;1.10;;
46417;SDS011;69884;64.758;20.962;2023-05-20T13:38:56;2.47;;;1.20;;
46417;SDS011;69884;64.758;20.962;2023-05-20T13:41:22;2.30;;;1.10;;
46417;SDS011;69884;64.758;20.962;2023-05-20T13:43:49;1.80;;;1.30;;
46417;SDS011;69884;64.758;20.962;2023-05-20T13:46:14;2.27;;;1.60;;
46417;SDS011;69884;64.758;20.962;2023-05-20T13:48:40;1.27;;;1.10;;
46417;SDS011;69884;64.758;20.962;2023-05-20T13:51:05;2.00;;;1.10;;
46417;SDS011;69884;64.758;20.962;2023-05-20T13:53:31;2.00;;;1.10;;
46417;SDS011;69884;64.758;20.962;2023-05-20T13:55:56;1.50;;;1.10;;
46417;SDS011;69884;64.758;20.962;2023-05-20T13:58:21;1.83;;;1.00;;
46417;SDS011;69884;64.758;20.962;2023-05-20T14:00:47;0.83;;;0.83;;
46417;SDS011;69884;64.758;20.962;2023-05-20T14:03:12;1.80;;;0.90;;
46417;SDS011;69884;64.758;20.962;2023-05-20T14:05:37;1.30;;;1.10;;
46417;SDS011;69884;64.758;20.962;2023-05-20T14:08:04;1.98;;;1.00;;
46417;SDS011;69884;64.758;20.962;2023-05-20T14:10:29;1.42;;;0.93;;
46417;SDS011;69884;64.758;20.962;2023-05-20T14:12:56;1.60;;;1.17;;
46417;SDS011;69884;64.758;20.962;2023-05-20T14:15:21;1.10;;;1.00;;
46417;SDS011;69884;64.758;20.962;2023-05-20T14:17:47;0.93;;;0.90;;
46417;SDS011;69884;64.758;20.962;2023-05-20T14:20:13;1.00;;;0.90;;
46417;SDS011;69884;64.758;20.962;2023-05-20T14:22:38;1.70;;;1.00;;
46417;SDS011;69884;64.758;20.962;2023-05-20T14:25:03;1.37;;;1.17;;
46417;SDS011;69884;64.758;20.962;2023-05-20T14:27:29;2.80;;;1.05;;
46417;SDS011;69884;64.758;20.962;2023-05-20T14:29:54;3.50;;;1.00;;
46417;SDS011;69884;64.758;20.962;2023-05-20T14:32:19;2.00;;;1.10;;
46417;SDS011;69884;64.758;20.962;2023-05-20T14:34:45;1.97;;;1.50;;